sensor_id;sensor_type;location;lat;lon;timestamp;P1;durP1;ratioP1;P2;durP2;ratioP2
62010;SDS011;47967;51.756;10.174;2023-02-01T05:01:55;12.52;;;2.95;;
62010;SDS011;47967;51.756;10.174;2023-02-01T05:05:58;15.57;;;3.53;;
62010;SDS011;47967;51.756;10.174;2023-02-01T05:10:01;11.18;;;3.20;;
62010;SDS011;47967;51.756;10.174;2023-02-01T05:14:03;15.88;;;3.55;;
62010;SDS011;47967;51.756;10.174;2023-02-01T05:18:07;18.73;;;4.33;;
62010;SDS011;47967;51.756;10.174;2023-02-01T05:22:10;15.05;;;3.33;;
62010;SDS011;47967;51.756;10.174;2023-02-01T05:26:12;13.57;;;3.35;;
62010;SDS011;47967;51.756;10.174;2023-02-01T05:30:15;6.53;;;2.70;;
62010;SDS011;47967;51.756;10.174;2023-02-01T05:34:19;13.82;;;3.05;;
62010;SDS011;47967;51.756;10.174;2023-02-01T05:38:22;13.77;;;2.78;;
62010;SDS011;47967;51.756;10.174;2023-02-01T05:42:24;9.57;;;2.85;;
62010;SDS011;47967;51.756;10.174;2023-02-01T05:46:27;14.00;;;3.22;;
62010;SDS011;47967;51.756;10.174;2023-02-01T05:50:30;14.10;;;3.00;;
62010;SDS011;47967;51.756;10.174;2023-02-01T05:54:33;11.23;;;2.92;;
62010;SDS011;47967;51.756;10.174;2023-02-01T05:58:35;10.63;;;3.13;;
62010;SDS011;47967;51.756;10.174;2023-02-01T06:02:38;8.50;;;3.10;;
62010;SDS011;47967;51.756;10.174;2023-02-01T06:10:45;8.85;;;3.30;;
62010;SDS011;47967;51.756;10.174;2023-02-01T06:14:48;8.77;;;3.28;;
62010;SDS011;47967;51.756;10.174;2023-02-01T06:18:50;10.73;;;3.05;;
62010;SDS011;47967;51.756;10.174;2023-02-01T06:22:54;7.87;;;2.63;;
62010;SDS011;47967;51.756;10.174;2023-02-01T06:26:57;9.07;;;3.17;;
62010;SDS011;47967;51.756;10.174;2023-02-01T06:31:02;6.75;;;2.55;;
62010;SDS011;47967;51.756;10.174;2023-02-01T06:35:08;9.38;;;3.28;;
62010;SDS011;47967;51.756;10.174;2023-02-01T06:39:13;5.50;;;2.53;;
62010;SDS011;47967;51.756;10.174;2023-02-01T06:43:17;6.00;;;2.50;;
62010;SDS011;47967;51.756;10.174;2023-02-01T06:47:19;8.25;;;3.05;;
62010;SDS011;47967;51.756;10.174;2023-02-01T06:51:23;12.07;;;3.13;;
62010;SDS011;47967;51.756;10.174;2023-02-01T06:55:29;7.43;;;2.83;;
62010;SDS011;47967;51.756;10.174;2023-02-01T06:59:32;6.35;;;2.67;;
62010;SDS011;47967;51.756;10.174;2023-02-01T07:03:34;4.18;;;2.30;;
62010;SDS011;47967;51.756;10.174;2023-02-01T07:07:37;8.87;;;3.20;;
62010;SDS011;47967;51.756;10.174;2023-02-01T07:11:41;6.85;;;2.58;;
62010;SDS011;47967;51.756;10.174;2023-02-01T07:15:45;7.30;;;3.05;;
62010;SDS011;47967;51.756;10.174;2023-02-01T07:23:51;5.50;;;2.50;;
62010;SDS011;47967;51.756;10.174;2023-02-01T07:27:54;9.43;;;3.13;;
62010;SDS011;47967;51.756;10.174;2023-02-01T07:31:57;9.13;;;2.47;;
62010;SDS011;47967;51.756;10.174;2023-02-01T07:36:00;8.20;;;2.92;;
62010;SDS011;47967;51.756;10.174;2023-02-01T07:40:04;11.68;;;2.85;;
62010;SDS011;47967;51.756;10.174;2023-02-01T07:44:09;17.88;;;3.08;;
62010;SDS011;47967;51.756;10.174;2023-02-01T07:48:11;13.30;;;2.90;;
62010;SDS011;47967;51.756;10.174;2023-02-01T07:52:14;9.43;;;2.88;;
62010;SDS011;47967;51.756;10.174;2023-02-01T07:56:18;13.23;;;3.03;;
62010;SDS011;47967;51.756;10.174;2023-02-01T08:00:23;15.68;;;3.13;;
62010;SDS011;47967;51.756;10.174;2023-02-01T08:04:44;10.63;;;2.60;;
62010;SDS011;47967;51.756;10.174;2023-02-01T08:08:46;8.32;;;2.28;;
62010;SDS011;47967;51.756;10.174;2023-02-01T08:12:49;11.18;;;2.55;;
62010;SDS011;47967;51.756;10.174;2023-02-01T08:16:54;10.02;;;2.17;;
62010;SDS011;47967;51.756;10.174;2023-02-01T08:20:57;7.75;;;2.13;;
62010;SDS011;47967;51.756;10.174;2023-02-01T08:25:05;11.05;;;2.35;;
62010;SDS011;47967;51.756;10.174;2023-02-01T08:29:09;9.73;;;2.95;;
62010;SDS011;47967;51.756;10.174;2023-02-01T08:33:14;9.52;;;2.45;;
62010;SDS011;47967;51.756;10.174;2023-02-01T08:37:17;7.03;;;2.25;;
62010;SDS011;47967;51.756;10.174;2023-02-01T08:41:20;10.00;;;2.40;;
62010;SDS011;47967;51.756;10.174;2023-02-01T08:45:25;15.15;;;3.08;;
62010;SDS011;47967;51.756;10.174;2023-02-01T08:49:31;13.77;;;2.05;;
62010;SDS011;47967;51.756;10.174;2023-02-01T08:53:33;8.50;;;2.17;;
62010;SDS011;47967;51.756;10.174;2023-02-01T08:57:37;7.93;;;2.25;;
62010;SDS011;47967;51.756;10.174;2023-02-01T09:01:39;15.40;;;2.17;;
62010;SDS011;47967;51.756;10.174;2023-02-01T09:05:43;9.47;;;2.03;;
62010;SDS011;47967;51.756;10.174;2023-02-01T09:09:50;10.35;;;2.05;;
62010;SDS011;47967;51.756;10.174;2023-02-01T09:13:53;11.55;;;2.20;;
62010;SDS011;47967;51.756;10.174;2023-02-01T09:17:56;14.85;;;2.63;;
62010;SDS011;47967;51.756;10.174;2023-02-01T09:22:00;10.65;;;2.08;;
62010;SDS011;47967;51.756;10.174;2023-02-01T09:26:03;11.63;;;2.30;;
62010;SDS011;47967;51.756;10.174;2023-02-01T09:30:08;11.57;;;2.35;;
62010;SDS011;47967;51.756;10.174;2023-02-01T09:34:11;12.52;;;2.47;;
62010;SDS011;47967;51.756;10.174;2023-02-01T09:38:15;8.50;;;2.40;;
62010;SDS011;47967;51.756;10.174;2023-02-01T09:42:24;6.00;;;1.70;;
62010;SDS011;47967;51.756;10.174;2023-02-01T09:46:36;9.63;;;2.17;;
62010;SDS011;47967;51.756;10.174;2023-02-01T09:50:39;5.87;;;2.00;;
62010;SDS011;47967;51.756;10.174;2023-02-01T09:54:49;9.80;;;1.63;;
62010;SDS011;47967;51.756;10.174;2023-02-01T09:58:59;10.45;;;2.00;;
62010;SDS011;47967;51.756;10.174;2023-02-01T10:03:10;7.13;;;1.95;;
62010;SDS011;47967;51.756;10.174;2023-02-01T10:07:21;8.15;;;2.08;;
62010;SDS011;47967;51.756;10.174;2023-02-01T10:11:37;14.98;;;1.90;;
62010;SDS011;47967;51.756;10.174;2023-02-01T10:15:52;11.88;;;2.00;;
62010;SDS011;47967;51.756;10.174;2023-02-01T10:20:07;8.98;;;2.35;;
62010;SDS011;47967;51.756;10.174;2023-02-01T10:24:34;8.38;;;1.65;;
62010;SDS011;47967;51.756;10.174;2023-02-01T10:28:41;8.07;;;2.47;;
62010;SDS011;47967;51.756;10.174;2023-02-01T10:32:47;8.80;;;1.98;;
62010;SDS011;47967;51.756;10.174;2023-02-01T10:36:55;9.85;;;2.35;;
62010;SDS011;47967;51.756;10.174;2023-02-01T10:41:03;6.47;;;1.80;;
62010;SDS011;47967;51.756;10.174;2023-02-01T10:45:13;10.07;;;2.00;;
62010;SDS011;47967;51.756;10.174;2023-02-01T10:49:20;6.88;;;1.95;;
62010;SDS011;47967;51.756;10.174;2023-02-01T10:53:28;8.68;;;2.05;;
62010;SDS011;47967;51.756;10.174;2023-02-01T10:57:36;6.15;;;1.92;;
62010;SDS011;47967;51.756;10.174;2023-02-01T11:01:41;7.55;;;1.70;;
62010;SDS011;47967;51.756;10.174;2023-02-01T11:05:46;13.65;;;2.40;;
62010;SDS011;47967;51.756;10.174;2023-02-01T11:09:51;6.50;;;1.50;;
62010;SDS011;47967;51.756;10.174;2023-02-01T11:13:57;9.43;;;1.98;;
62010;SDS011;47967;51.756;10.174;2023-02-01T11:18:14;13.20;;;2.20;;
62010;SDS011;47967;51.756;10.174;2023-02-01T11:22:18;13.07;;;2.33;;
62010;SDS011;47967;51.756;10.174;2023-02-01T11:26:22;7.22;;;1.73;;
62010;SDS011;47967;51.756;10.174;2023-02-01T11:30:29;10.48;;;2.20;;
62010;SDS011;47967;51.756;10.174;2023-02-01T11:34:37;10.30;;;2.60;;
62010;SDS011;47967;51.756;10.174;2023-02-01T11:38:45;8.20;;;2.38;;
62010;SDS011;47967;51.756;10.174;2023-02-01T11:42:53;7.95;;;1.92;;
62010;SDS011;47967;51.756;10.174;2023-02-01T11:47:11;11.05;;;2.53;;
62010;SDS011;47967;51.756;10.174;2023-02-01T11:51:26;11.40;;;2.40;;
62010;SDS011;47967;51.756;10.174;2023-02-01T11:55:50;7.10;;;2.40;;
62010;SDS011;47967;51.756;10.174;2023-02-01T12:00:02;8.63;;;2.35;;
62010;SDS011;47967;51.756;10.174;2023-02-01T12:08:55;10.73;;;2.53;;
62010;SDS011;47967;51.756;10.174;2023-02-01T12:13:29;9.48;;;2.65;;
62010;SDS011;47967;51.756;10.174;2023-02-01T12:17:49;7.50;;;2.92;;
62010;SDS011;47967;51.756;10.174;2023-02-01T12:22:12;12.15;;;3.42;;
62010;SDS011;47967;51.756;10.174;2023-02-01T12:26:27;8.88;;;2.85;;
62010;SDS011;47967;51.756;10.174;2023-02-01T12:30:50;7.25;;;2.50;;
62010;SDS011;47967;51.756;10.174;2023-02-01T12:35:13;10.77;;;2.70;;
62010;SDS011;47967;51.756;10.174;2023-02-01T12:39:24;8.20;;;2.40;;
62010;SDS011;47967;51.756;10.174;2023-02-01T12:43:36;9.77;;;2.80;;
62010;SDS011;47967;51.756;10.174;2023-02-01T12:47:47;7.45;;;2.38;;
62010;SDS011;47967;51.756;10.174;2023-02-01T12:51:57;11.05;;;2.88;;
62010;SDS011;47967;51.756;10.174;2023-02-01T12:56:03;7.85;;;3.08;;
62010;SDS011;47967;51.756;10.174;2023-02-01T13:00:16;8.88;;;3.03;;
62010;SDS011;47967;51.756;10.174;2023-02-01T13:04:30;9.18;;;3.00;;
62010;SDS011;47967;51.756;10.174;2023-02-01T13:08:38;13.00;;;3.00;;
62010;SDS011;47967;51.756;10.174;2023-02-01T13:12:48;5.35;;;2.90;;
62010;SDS011;47967;51.756;10.174;2023-02-01T13:16:57;9.43;;;3.15;;
62010;SDS011;47967;51.756;10.174;2023-02-01T13:21:05;8.65;;;2.83;;
62010;SDS011;47967;51.756;10.174;2023-02-01T13:25:11;8.40;;;3.20;;
62010;SDS011;47967;51.756;10.174;2023-02-01T13:29:17;8.10;;;3.05;;
62010;SDS011;47967;51.756;10.174;2023-02-01T13:38:01;8.25;;;2.60;;
62010;SDS011;47967;51.756;10.174;2023-02-01T13:42:17;12.35;;;4.10;;
62010;SDS011;47967;51.756;10.174;2023-02-01T13:46:23;8.25;;;2.85;;
62010;SDS011;47967;51.756;10.174;2023-02-01T13:50:29;6.63;;;3.10;;
62010;SDS011;47967;51.756;10.174;2023-02-01T13:54:36;9.55;;;3.50;;
62010;SDS011;47967;51.756;10.174;2023-02-01T14:03:22;8.68;;;3.03;;
62010;SDS011;47967;51.756;10.174;2023-02-01T14:21:45;7.00;;;3.03;;
62010;SDS011;47967;51.756;10.174;2023-02-01T14:26:07;6.60;;;3.15;;
62010;SDS011;47967;51.756;10.174;2023-02-01T14:30:14;9.60;;;3.30;;
62010;SDS011;47967;51.756;10.174;2023-02-01T14:34:20;6.28;;;2.70;;
62010;SDS011;47967;51.756;10.174;2023-02-01T14:38:27;4.10;;;2.25;;
62010;SDS011;47967;51.756;10.174;2023-02-01T14:42:37;6.97;;;2.55;;
62010;SDS011;47967;51.756;10.174;2023-02-01T14:51:11;4.68;;;2.40;;
62010;SDS011;47967;51.756;10.174;2023-02-01T14:55:18;2.10;;;1.60;;
62010;SDS011;47967;51.756;10.174;2023-02-01T14:59:28;5.05;;;1.50;;
62010;SDS011;47967;51.756;10.174;2023-02-01T15:03:36;0.52;;;0.52;;
62010;SDS011;47967;51.756;10.174;2023-02-01T15:07:46;1.30;;;0.68;;
62010;SDS011;47967;51.756;10.174;2023-02-01T15:11:56;2.00;;;0.67;;
62010;SDS011;47967;51.756;10.174;2023-02-01T15:16:02;0.20;;;0.20;;
62010;SDS011;47967;51.756;10.174;2023-02-01T15:20:12;1.52;;;0.50;;
62010;SDS011;47967;51.756;10.174;2023-02-01T15:24:19;2.50;;;0.30;;
62010;SDS011;47967;51.756;10.174;2023-02-01T15:28:23;1.38;;;0.75;;
62010;SDS011;47967;51.756;10.174;2023-02-01T15:32:31;1.20;;;0.65;;
62010;SDS011;47967;51.756;10.174;2023-02-01T15:36:35;1.75;;;0.77;;
62010;SDS011;47967;51.756;10.174;2023-02-01T15:40:51;0.35;;;0.32;;
62010;SDS011;47967;51.756;10.174;2023-02-01T15:44:56;1.83;;;1.17;;
62010;SDS011;47967;51.756;10.174;2023-02-01T15:49:00;1.50;;;1.10;;
62010;SDS011;47967;51.756;10.174;2023-02-01T15:53:02;1.80;;;0.80;;
62010;SDS011;47967;51.756;10.174;2023-02-01T15:57:06;0.80;;;0.80;;
62010;SDS011;47967;51.756;10.174;2023-02-01T16:01:10;1.60;;;0.70;;
62010;SDS011;47967;51.756;10.174;2023-02-01T16:05:31;2.80;;;1.20;;
62010;SDS011;47967;51.756;10.174;2023-02-01T16:09:37;2.85;;;1.13;;
62010;SDS011;47967;51.756;10.174;2023-02-01T16:13:41;3.05;;;1.40;;
62010;SDS011;47967;51.756;10.174;2023-02-01T16:17:44;4.10;;;1.97;;
62010;SDS011;47967;51.756;10.174;2023-02-01T16:21:48;2.60;;;1.70;;
62010;SDS011;47967;51.756;10.174;2023-02-01T16:25:50;3.50;;;1.35;;
62010;SDS011;47967;51.756;10.174;2023-02-01T16:29:53;2.03;;;0.70;;
62010;SDS011;47967;51.756;10.174;2023-02-01T16:33:57;4.03;;;0.90;;
62010;SDS011;47967;51.756;10.174;2023-02-01T16:38:01;6.05;;;1.20;;
62010;SDS011;47967;51.756;10.174;2023-02-01T16:42:08;2.30;;;1.05;;
62010;SDS011;47967;51.756;10.174;2023-02-01T16:46:13;1.67;;;0.95;;
62010;SDS011;47967;51.756;10.174;2023-02-01T16:50:18;1.00;;;0.82;;
62010;SDS011;47967;51.756;10.174;2023-02-01T16:54:26;2.60;;;1.15;;
62010;SDS011;47967;51.756;10.174;2023-02-01T16:58:28;4.10;;;1.00;;
62010;SDS011;47967;51.756;10.174;2023-02-01T17:02:31;1.57;;;0.47;;
62010;SDS011;47967;51.756;10.174;2023-02-01T17:06:34;2.70;;;0.70;;
62010;SDS011;47967;51.756;10.174;2023-02-01T17:10:40;0.45;;;0.45;;
62010;SDS011;47967;51.756;10.174;2023-02-01T17:14:42;2.05;;;0.90;;
62010;SDS011;47967;51.756;10.174;2023-02-01T17:18:46;1.00;;;0.60;;
62010;SDS011;47967;51.756;10.174;2023-02-01T17:22:54;2.70;;;0.70;;
62010;SDS011;47967;51.756;10.174;2023-02-01T17:26:58;2.73;;;0.57;;
62010;SDS011;47967;51.756;10.174;2023-02-01T17:31:01;4.70;;;1.13;;
62010;SDS011;47967;51.756;10.174;2023-02-01T17:35:05;1.75;;;0.80;;
62010;SDS011;47967;51.756;10.174;2023-02-01T17:39:14;4.65;;;1.08;;
62010;SDS011;47967;51.756;10.174;2023-02-01T17:43:33;4.05;;;1.60;;
62010;SDS011;47967;51.756;10.174;2023-02-01T17:47:35;4.35;;;1.05;;
62010;SDS011;47967;51.756;10.174;2023-02-01T17:51:39;3.85;;;2.00;;
62010;SDS011;47967;51.756;10.174;2023-02-01T17:55:42;10.55;;;1.52;;
62010;SDS011;47967;51.756;10.174;2023-02-01T17:59:47;5.80;;;1.55;;
62010;SDS011;47967;51.756;10.174;2023-02-01T18:03:50;12.85;;;1.73;;
62010;SDS011;47967;51.756;10.174;2023-02-01T18:07:53;8.63;;;1.87;;
62010;SDS011;47967;51.756;10.174;2023-02-01T18:11:55;8.60;;;1.83;;
62010;SDS011;47967;51.756;10.174;2023-02-01T18:15:59;3.53;;;1.30;;
62010;SDS011;47967;51.756;10.174;2023-02-01T18:20:04;3.63;;;1.05;;
62010;SDS011;47967;51.756;10.174;2023-02-01T18:28:12;13.07;;;2.03;;
62010;SDS011;47967;51.756;10.174;2023-02-01T18:32:17;11.30;;;2.38;;
62010;SDS011;47967;51.756;10.174;2023-02-01T18:36:20;16.08;;;2.35;;
62010;SDS011;47967;51.756;10.174;2023-02-01T18:40:23;8.00;;;1.60;;
62010;SDS011;47967;51.756;10.174;2023-02-01T18:44:28;5.28;;;1.65;;
62010;SDS011;47967;51.756;10.174;2023-02-01T18:48:32;6.90;;;2.15;;
62010;SDS011;47967;51.756;10.174;2023-02-01T18:52:34;8.48;;;2.03;;
62010;SDS011;47967;51.756;10.174;2023-02-01T18:56:37;13.20;;;2.43;;
62010;SDS011;47967;51.756;10.174;2023-02-01T19:00:40;10.05;;;2.38;;
62010;SDS011;47967;51.756;10.174;2023-02-01T19:04:45;15.13;;;2.45;;
62010;SDS011;47967;51.756;10.174;2023-02-01T19:08:47;15.30;;;2.72;;
62010;SDS011;47967;51.756;10.174;2023-02-01T19:16:55;8.93;;;1.55;;
62010;SDS011;47967;51.756;10.174;2023-02-01T19:21:02;12.05;;;2.08;;
62010;SDS011;47967;51.756;10.174;2023-02-01T19:25:06;15.98;;;2.65;;
62010;SDS011;47967;51.756;10.174;2023-02-01T19:29:13;19.40;;;2.35;;
62010;SDS011;47967;51.756;10.174;2023-02-01T19:33:16;10.43;;;2.30;;
62010;SDS011;47967;51.756;10.174;2023-02-01T19:37:20;11.75;;;2.28;;
62010;SDS011;47967;51.756;10.174;2023-02-01T19:41:22;16.13;;;2.63;;
62010;SDS011;47967;51.756;10.174;2023-02-01T19:45:25;13.27;;;2.42;;
62010;SDS011;47967;51.756;10.174;2023-02-01T19:49:27;10.57;;;2.83;;
62010;SDS011;47967;51.756;10.174;2023-02-01T19:53:31;9.30;;;2.47;;
62010;SDS011;47967;51.756;10.174;2023-02-01T19:57:34;12.52;;;2.47;;
62010;SDS011;47967;51.756;10.174;2023-02-01T20:01:37;12.63;;;2.05;;
62010;SDS011;47967;51.756;10.174;2023-02-01T20:05:39;9.73;;;2.27;;
62010;SDS011;47967;51.756;10.174;2023-02-01T20:09:43;24.23;;;2.90;;
62010;SDS011;47967;51.756;10.174;2023-02-01T20:13:46;11.98;;;2.58;;
62010;SDS011;47967;51.756;10.174;2023-02-01T20:17:48;14.25;;;1.98;;
62010;SDS011;47967;51.756;10.174;2023-02-01T20:21:51;13.50;;;2.65;;
62010;SDS011;47967;51.756;10.174;2023-02-01T20:25:55;15.00;;;2.38;;
62010;SDS011;47967;51.756;10.174;2023-02-01T20:30:03;7.97;;;2.10;;
62010;SDS011;47967;51.756;10.174;2023-02-01T20:38:08;11.27;;;2.28;;
62010;SDS011;47967;51.756;10.174;2023-02-01T20:42:12;12.15;;;2.33;;
62010;SDS011;47967;51.756;10.174;2023-02-01T20:46:15;15.48;;;2.97;;
62010;SDS011;47967;51.756;10.174;2023-02-01T20:50:18;14.68;;;2.85;;
62010;SDS011;47967;51.756;10.174;2023-02-01T20:54:21;11.55;;;2.08;;
62010;SDS011;47967;51.756;10.174;2023-02-01T20:58:25;11.10;;;2.07;;
62010;SDS011;47967;51.756;10.174;2023-02-01T21:02:28;11.20;;;2.17;;
62010;SDS011;47967;51.756;10.174;2023-02-01T21:06:30;16.03;;;2.47;;
62010;SDS011;47967;51.756;10.174;2023-02-01T21:10:33;16.55;;;2.90;;
62010;SDS011;47967;51.756;10.174;2023-02-01T21:14:37;8.13;;;3.03;;
62010;SDS011;47967;51.756;10.174;2023-02-01T21:18:40;12.85;;;2.40;;
62010;SDS011;47967;51.756;10.174;2023-02-01T21:22:43;14.47;;;2.97;;
62010;SDS011;47967;51.756;10.174;2023-02-01T21:26:45;16.73;;;3.37;;
62010;SDS011;47967;51.756;10.174;2023-02-01T21:30:49;16.83;;;3.00;;
62010;SDS011;47967;51.756;10.174;2023-02-01T21:34:52;13.68;;;2.80;;
62010;SDS011;47967;51.756;10.174;2023-02-01T21:38:54;17.20;;;3.33;;
62010;SDS011;47967;51.756;10.174;2023-02-01T21:43:03;16.17;;;2.85;;
62010;SDS011;47967;51.756;10.174;2023-02-01T21:47:08;20.98;;;2.97;;
62010;SDS011;47967;51.756;10.174;2023-02-01T21:51:11;11.45;;;1.58;;
62010;SDS011;47967;51.756;10.174;2023-02-01T21:55:17;15.23;;;2.60;;
62010;SDS011;47967;51.756;10.174;2023-02-01T21:59:19;13.20;;;2.72;;
